sensor_id;sensor_type;location;lat;lon;timestamp;P1;durP1;ratioP1;P2;durP2;ratioP2
35223;SDS011;21367;51.930;8.112;2023-03-17T00:00:06;9.85;;;5.20;;
35223;SDS011;21367;51.930;8.112;2023-03-17T00:05:18;21.60;;;5.45;;
35223;SDS011;21367;51.930;8.112;2023-03-17T00:10:24;10.68;;;5.18;;
35223;SDS011;21367;51.930;8.112;2023-03-17T00:15:28;12.88;;;4.72;;
35223;SDS011;21367;51.930;8.112;2023-03-17T00:20:35;8.82;;;5.20;;
35223;SDS011;21367;51.930;8.112;2023-03-17T00:30:44;13.02;;;4.70;;
35223;SDS011;21367;51.930;8.112;2023-03-17T00:35:51;13.30;;;5.18;;
35223;SDS011;21367;51.930;8.112;2023-03-17T00:40:55;14.38;;;4.65;;
35223;SDS011;21367;51.930;8.112;2023-03-17T00:45:59;9.60;;;4.68;;
35223;SDS011;21367;51.930;8.112;2023-03-17T00:51:05;9.40;;;5.00;;
35223;SDS011;21367;51.930;8.112;2023-03-17T00:56:10;11.73;;;5.18;;
35223;SDS011;21367;51.930;8.112;2023-03-17T01:01:16;13.65;;;4.60;;
35223;SDS011;21367;51.930;8.112;2023-03-17T01:06:23;10.73;;;4.70;;
35223;SDS011;21367;51.930;8.112;2023-03-17T01:11:27;7.10;;;3.70;;
35223;SDS011;21367;51.930;8.112;2023-03-17T01:16:30;10.73;;;4.47;;
35223;SDS011;21367;51.930;8.112;2023-03-17T01:21:37;8.88;;;4.32;;
35223;SDS011;21367;51.930;8.112;2023-03-17T01:26:41;9.65;;;4.25;;
35223;SDS011;21367;51.930;8.112;2023-03-17T01:31:45;11.07;;;4.30;;
35223;SDS011;21367;51.930;8.112;2023-03-17T01:36:52;9.65;;;4.85;;
35223;SDS011;21367;51.930;8.112;2023-03-17T01:47:01;11.30;;;4.32;;
35223;SDS011;21367;51.930;8.112;2023-03-17T01:52:10;10.43;;;4.57;;
35223;SDS011;21367;51.930;8.112;2023-03-17T01:57:17;13.55;;;5.03;;
35223;SDS011;21367;51.930;8.112;2023-03-17T02:02:27;12.38;;;4.35;;
35223;SDS011;21367;51.930;8.112;2023-03-17T02:07:37;11.93;;;4.93;;
35223;SDS011;21367;51.930;8.112;2023-03-17T02:12:42;9.20;;;4.85;;
35223;SDS011;21367;51.930;8.112;2023-03-17T02:17:47;9.47;;;4.57;;
35223;SDS011;21367;51.930;8.112;2023-03-17T02:22:54;15.45;;;5.15;;
35223;SDS011;21367;51.930;8.112;2023-03-17T02:28:00;11.38;;;4.88;;
35223;SDS011;21367;51.930;8.112;2023-03-17T02:39:16;9.80;;;5.25;;
35223;SDS011;21367;51.930;8.112;2023-03-17T02:44:21;16.55;;;7.45;;
35223;SDS011;21367;51.930;8.112;2023-03-17T02:49:27;11.38;;;5.43;;
35223;SDS011;21367;51.930;8.112;2023-03-17T02:54:34;10.65;;;5.15;;
35223;SDS011;21367;51.930;8.112;2023-03-17T02:59:38;11.02;;;5.18;;
35223;SDS011;21367;51.930;8.112;2023-03-17T03:04:42;14.88;;;6.25;;
35223;SDS011;21367;51.930;8.112;2023-03-17T03:09:49;11.68;;;6.15;;
35223;SDS011;21367;51.930;8.112;2023-03-17T03:14:52;11.60;;;5.82;;
35223;SDS011;21367;51.930;8.112;2023-03-17T03:19:56;14.23;;;6.38;;
35223;SDS011;21367;51.930;8.112;2023-03-17T03:25:03;15.90;;;5.55;;
35223;SDS011;21367;51.930;8.112;2023-03-17T03:30:09;11.80;;;5.30;;
35223;SDS011;21367;51.930;8.112;2023-03-17T03:35:14;13.15;;;5.25;;
35223;SDS011;21367;51.930;8.112;2023-03-17T03:40:20;9.95;;;4.95;;
35223;SDS011;21367;51.930;8.112;2023-03-17T03:45:24;14.35;;;4.95;;
35223;SDS011;21367;51.930;8.112;2023-03-17T03:50:28;12.57;;;5.05;;
35223;SDS011;21367;51.930;8.112;2023-03-17T03:55:34;10.35;;;4.70;;
35223;SDS011;21367;51.930;8.112;2023-03-17T04:00:38;9.27;;;5.15;;
35223;SDS011;21367;51.930;8.112;2023-03-17T04:05:42;9.57;;;5.70;;
35223;SDS011;21367;51.930;8.112;2023-03-17T04:10:48;9.93;;;4.90;;
35223;SDS011;21367;51.930;8.112;2023-03-17T04:20:55;15.27;;;5.68;;
35223;SDS011;21367;51.930;8.112;2023-03-17T04:26:02;12.55;;;5.65;;
35223;SDS011;21367;51.930;8.112;2023-03-17T04:31:07;9.73;;;5.40;;
35223;SDS011;21367;51.930;8.112;2023-03-17T04:36:14;11.17;;;5.53;;
35223;SDS011;21367;51.930;8.112;2023-03-17T04:41:23;19.08;;;5.88;;
35223;SDS011;21367;51.930;8.112;2023-03-17T04:51:31;18.30;;;5.80;;
35223;SDS011;21367;51.930;8.112;2023-03-17T04:56:38;11.35;;;5.72;;
35223;SDS011;21367;51.930;8.112;2023-03-17T05:06:46;15.48;;;5.55;;
35223;SDS011;21367;51.930;8.112;2023-03-17T05:11:54;10.57;;;5.38;;
35223;SDS011;21367;51.930;8.112;2023-03-17T05:16:57;10.75;;;5.30;;
35223;SDS011;21367;51.930;8.112;2023-03-17T05:22:01;13.82;;;6.00;;
35223;SDS011;21367;51.930;8.112;2023-03-17T05:27:08;13.05;;;5.40;;
35223;SDS011;21367;51.930;8.112;2023-03-17T05:32:11;11.45;;;5.57;;
35223;SDS011;21367;51.930;8.112;2023-03-17T05:37:15;11.02;;;5.60;;
35223;SDS011;21367;51.930;8.112;2023-03-17T05:42:21;15.63;;;6.53;;
35223;SDS011;21367;51.930;8.112;2023-03-17T05:47:25;16.83;;;6.10;;
35223;SDS011;21367;51.930;8.112;2023-03-17T05:52:29;15.98;;;6.53;;
35223;SDS011;21367;51.930;8.112;2023-03-17T05:57:36;13.35;;;6.00;;
35223;SDS011;21367;51.930;8.112;2023-03-17T06:02:39;12.93;;;6.38;;
35223;SDS011;21367;51.930;8.112;2023-03-17T06:07:43;15.98;;;5.80;;
35223;SDS011;21367;51.930;8.112;2023-03-17T06:12:50;12.93;;;5.90;;
35223;SDS011;21367;51.930;8.112;2023-03-17T06:17:54;11.93;;;5.88;;
35223;SDS011;21367;51.930;8.112;2023-03-17T06:22:58;14.50;;;6.60;;
35223;SDS011;21367;51.930;8.112;2023-03-17T06:28:05;14.77;;;6.63;;
35223;SDS011;21367;51.930;8.112;2023-03-17T06:33:09;21.23;;;6.50;;
35223;SDS011;21367;51.930;8.112;2023-03-17T06:38:13;15.95;;;7.18;;
35223;SDS011;21367;51.930;8.112;2023-03-17T06:43:19;25.38;;;8.07;;
35223;SDS011;21367;51.930;8.112;2023-03-17T06:48:24;20.55;;;9.48;;
35223;SDS011;21367;51.930;8.112;2023-03-17T06:53:27;19.27;;;8.57;;
35223;SDS011;21367;51.930;8.112;2023-03-17T06:58:33;17.48;;;7.25;;
35223;SDS011;21367;51.930;8.112;2023-03-17T07:08:41;23.58;;;6.82;;
35223;SDS011;21367;51.930;8.112;2023-03-17T07:13:49;19.65;;;7.25;;
35223;SDS011;21367;51.930;8.112;2023-03-17T07:18:53;18.73;;;6.50;;
35223;SDS011;21367;51.930;8.112;2023-03-17T07:23:56;14.10;;;6.47;;
35223;SDS011;21367;51.930;8.112;2023-03-17T07:29:03;11.90;;;5.95;;
35223;SDS011;21367;51.930;8.112;2023-03-17T07:34:07;21.25;;;7.57;;
35223;SDS011;21367;51.930;8.112;2023-03-17T07:39:11;16.58;;;7.65;;
35223;SDS011;21367;51.930;8.112;2023-03-17T07:44:18;18.27;;;6.55;;
35223;SDS011;21367;51.930;8.112;2023-03-17T07:49:22;12.13;;;6.65;;
35223;SDS011;21367;51.930;8.112;2023-03-17T07:54:26;14.38;;;6.15;;
35223;SDS011;21367;51.930;8.112;2023-03-17T07:59:33;14.30;;;5.82;;
35223;SDS011;21367;51.930;8.112;2023-03-17T08:04:37;17.58;;;5.70;;
35223;SDS011;21367;51.930;8.112;2023-03-17T08:09:41;10.25;;;5.13;;
35223;SDS011;21367;51.930;8.112;2023-03-17T08:14:47;20.73;;;5.18;;
35223;SDS011;21367;51.930;8.112;2023-03-17T08:24:55;20.15;;;5.68;;
35223;SDS011;21367;51.930;8.112;2023-03-17T08:30:01;13.68;;;5.05;;
35223;SDS011;21367;51.930;8.112;2023-03-17T08:35:06;13.32;;;5.18;;
35223;SDS011;21367;51.930;8.112;2023-03-17T08:40:10;12.35;;;4.70;;
35223;SDS011;21367;51.930;8.112;2023-03-17T08:50:22;8.27;;;4.03;;
35223;SDS011;21367;51.930;8.112;2023-03-17T08:55:26;8.88;;;4.05;;
35223;SDS011;21367;51.930;8.112;2023-03-17T09:00:32;11.95;;;3.83;;
35223;SDS011;21367;51.930;8.112;2023-03-17T09:05:36;7.72;;;3.90;;
35223;SDS011;21367;51.930;8.112;2023-03-17T09:10:42;16.88;;;7.30;;
35223;SDS011;21367;51.930;8.112;2023-03-17T09:15:49;8.32;;;4.57;;
35223;SDS011;21367;51.930;8.112;2023-03-17T09:25:57;6.70;;;3.08;;
35223;SDS011;21367;51.930;8.112;2023-03-17T09:31:04;8.93;;;2.50;;
35223;SDS011;21367;51.930;8.112;2023-03-17T09:36:10;7.82;;;2.70;;
35223;SDS011;21367;51.930;8.112;2023-03-17T09:46:56;4.40;;;2.38;;
35223;SDS011;21367;51.930;8.112;2023-03-17T09:52:11;8.82;;;2.80;;
35223;SDS011;21367;51.930;8.112;2023-03-17T09:57:16;10.63;;;2.85;;
35223;SDS011;21367;51.930;8.112;2023-03-17T10:02:28;8.30;;;2.90;;
35223;SDS011;21367;51.930;8.112;2023-03-17T10:07:36;13.10;;;2.80;;
35223;SDS011;21367;51.930;8.112;2023-03-17T10:12:45;9.10;;;2.70;;
35223;SDS011;21367;51.930;8.112;2023-03-17T10:18:00;13.02;;;3.53;;
35223;SDS011;21367;51.930;8.112;2023-03-17T10:23:05;9.57;;;2.83;;
35223;SDS011;21367;51.930;8.112;2023-03-17T10:28:22;6.13;;;2.17;;
35223;SDS011;21367;51.930;8.112;2023-03-17T10:33:31;12.70;;;3.00;;
35223;SDS011;21367;51.930;8.112;2023-03-17T10:38:35;5.05;;;2.22;;
35223;SDS011;21367;51.930;8.112;2023-03-17T10:43:41;7.88;;;2.45;;
35223;SDS011;21367;51.930;8.112;2023-03-17T10:48:53;5.70;;;1.88;;
35223;SDS011;21367;51.930;8.112;2023-03-17T10:54:00;7.47;;;2.90;;
35223;SDS011;21367;51.930;8.112;2023-03-17T10:59:06;7.43;;;3.05;;
35223;SDS011;21367;51.930;8.112;2023-03-17T11:04:22;5.15;;;2.28;;
35223;SDS011;21367;51.930;8.112;2023-03-17T11:09:30;5.15;;;2.25;;
35223;SDS011;21367;51.930;8.112;2023-03-17T11:14:37;7.60;;;2.75;;
35223;SDS011;21367;51.930;8.112;2023-03-17T11:19:51;11.52;;;2.28;;
35223;SDS011;21367;51.930;8.112;2023-03-17T11:25:03;7.78;;;2.17;;
35223;SDS011;21367;51.930;8.112;2023-03-17T11:30:15;7.35;;;2.05;;
35223;SDS011;21367;51.930;8.112;2023-03-17T11:35:32;8.60;;;2.50;;
35223;SDS011;21367;51.930;8.112;2023-03-17T11:40:43;6.10;;;2.47;;
35223;SDS011;21367;51.930;8.112;2023-03-17T11:46:02;6.70;;;2.08;;
35223;SDS011;21367;51.930;8.112;2023-03-17T11:51:17;11.05;;;3.08;;
35223;SDS011;21367;51.930;8.112;2023-03-17T11:56:30;5.13;;;2.33;;
35223;SDS011;21367;51.930;8.112;2023-03-17T12:01:43;8.77;;;2.60;;
35223;SDS011;21367;51.930;8.112;2023-03-17T12:06:58;7.43;;;2.65;;
35223;SDS011;21367;51.930;8.112;2023-03-17T12:12:08;8.30;;;2.40;;
35223;SDS011;21367;51.930;8.112;2023-03-17T12:17:16;5.30;;;2.00;;
35223;SDS011;21367;51.930;8.112;2023-03-17T12:22:28;5.30;;;2.47;;
35223;SDS011;21367;51.930;8.112;2023-03-17T12:27:39;6.93;;;2.60;;
35223;SDS011;21367;51.930;8.112;2023-03-17T12:32:47;8.65;;;2.70;;
35223;SDS011;21367;51.930;8.112;2023-03-17T12:37:58;6.18;;;2.53;;
35223;SDS011;21367;51.930;8.112;2023-03-17T12:43:17;7.38;;;2.42;;
35223;SDS011;21367;51.930;8.112;2023-03-17T12:48:44;9.18;;;2.55;;
35223;SDS011;21367;51.930;8.112;2023-03-17T12:54:12;8.80;;;3.17;;
35223;SDS011;21367;51.930;8.112;2023-03-17T12:59:23;6.15;;;2.30;;
35223;SDS011;21367;51.930;8.112;2023-03-17T13:04:31;6.03;;;1.95;;
35223;SDS011;21367;51.930;8.112;2023-03-17T13:09:46;10.18;;;2.50;;
35223;SDS011;21367;51.930;8.112;2023-03-17T13:14:52;12.20;;;2.10;;
35223;SDS011;21367;51.930;8.112;2023-03-17T13:20:02;6.07;;;2.08;;
35223;SDS011;21367;51.930;8.112;2023-03-17T13:25:25;11.35;;;1.60;;
35223;SDS011;21367;51.930;8.112;2023-03-17T13:36:03;8.60;;;2.50;;
35223;SDS011;21367;51.930;8.112;2023-03-17T13:46:47;6.68;;;2.30;;
35223;SDS011;21367;51.930;8.112;2023-03-17T13:51:52;7.20;;;2.45;;
35223;SDS011;21367;51.930;8.112;2023-03-17T13:57:20;7.22;;;2.28;;
35223;SDS011;21367;51.930;8.112;2023-03-17T14:02:28;7.50;;;2.38;;
35223;SDS011;21367;51.930;8.112;2023-03-17T14:07:38;10.35;;;2.47;;
35223;SDS011;21367;51.930;8.112;2023-03-17T14:12:51;5.68;;;2.20;;
35223;SDS011;21367;51.930;8.112;2023-03-17T14:18:01;6.68;;;2.25;;
35223;SDS011;21367;51.930;8.112;2023-03-17T14:23:10;5.82;;;2.65;;
35223;SDS011;21367;51.930;8.112;2023-03-17T14:28:17;6.30;;;2.58;;
35223;SDS011;21367;51.930;8.112;2023-03-17T14:33:26;5.93;;;2.55;;
35223;SDS011;21367;51.930;8.112;2023-03-17T14:38:31;8.67;;;2.20;;
35223;SDS011;21367;51.930;8.112;2023-03-17T14:43:39;7.97;;;2.80;;
35223;SDS011;21367;51.930;8.112;2023-03-17T14:48:45;6.40;;;2.60;;
35223;SDS011;21367;51.930;8.112;2023-03-17T14:53:51;5.60;;;2.38;;
35223;SDS011;21367;51.930;8.112;2023-03-17T14:59:05;7.70;;;2.47;;
35223;SDS011;21367;51.930;8.112;2023-03-17T15:04:10;7.07;;;2.45;;
35223;SDS011;21367;51.930;8.112;2023-03-17T15:09:19;7.32;;;2.75;;
35223;SDS011;21367;51.930;8.112;2023-03-17T15:14:39;8.45;;;2.30;;
35223;SDS011;21367;51.930;8.112;2023-03-17T15:19:44;8.43;;;2.45;;
35223;SDS011;21367;51.930;8.112;2023-03-17T15:24:50;6.35;;;2.30;;
35223;SDS011;21367;51.930;8.112;2023-03-17T15:30:03;7.75;;;2.78;;
35223;SDS011;21367;51.930;8.112;2023-03-17T15:35:10;12.27;;;3.72;;
35223;SDS011;21367;51.930;8.112;2023-03-17T15:40:15;6.07;;;2.72;;
35223;SDS011;21367;51.930;8.112;2023-03-17T15:45:22;6.95;;;2.50;;
35223;SDS011;21367;51.930;8.112;2023-03-17T15:50:26;7.80;;;2.30;;
35223;SDS011;21367;51.930;8.112;2023-03-17T15:55:33;6.78;;;2.10;;
35223;SDS011;21367;51.930;8.112;2023-03-17T16:00:39;9.57;;;2.25;;
35223;SDS011;21367;51.930;8.112;2023-03-17T16:05:44;6.18;;;2.17;;
35223;SDS011;21367;51.930;8.112;2023-03-17T16:10:47;8.27;;;2.53;;
35223;SDS011;21367;51.930;8.112;2023-03-17T16:15:54;8.10;;;3.30;;
35223;SDS011;21367;51.930;8.112;2023-03-17T16:21:04;11.93;;;3.33;;
35223;SDS011;21367;51.930;8.112;2023-03-17T16:26:08;5.93;;;2.47;;
35223;SDS011;21367;51.930;8.112;2023-03-17T16:36:33;12.18;;;3.00;;
35223;SDS011;21367;51.930;8.112;2023-03-17T16:41:36;14.45;;;3.00;;
35223;SDS011;21367;51.930;8.112;2023-03-17T16:46:43;11.35;;;3.00;;
35223;SDS011;21367;51.930;8.112;2023-03-17T16:51:47;9.43;;;2.65;;
35223;SDS011;21367;51.930;8.112;2023-03-17T16:56:50;11.52;;;3.05;;
35223;SDS011;21367;51.930;8.112;2023-03-17T17:01:56;15.52;;;4.55;;
35223;SDS011;21367;51.930;8.112;2023-03-17T17:07:00;11.52;;;4.50;;
35223;SDS011;21367;51.930;8.112;2023-03-17T17:12:04;10.60;;;4.38;;
35223;SDS011;21367;51.930;8.112;2023-03-17T17:17:11;10.93;;;3.65;;
35223;SDS011;21367;51.930;8.112;2023-03-17T17:22:15;6.30;;;3.05;;
35223;SDS011;21367;51.930;8.112;2023-03-17T17:27:19;8.20;;;3.30;;
35223;SDS011;21367;51.930;8.112;2023-03-17T17:32:25;8.23;;;3.17;;
35223;SDS011;21367;51.930;8.112;2023-03-17T17:37:29;12.73;;;4.15;;
35223;SDS011;21367;51.930;8.112;2023-03-17T17:42:33;9.15;;;4.00;;
35223;SDS011;21367;51.930;8.112;2023-03-17T17:47:40;14.05;;;4.25;;
35223;SDS011;21367;51.930;8.112;2023-03-17T17:52:43;12.07;;;3.10;;
35223;SDS011;21367;51.930;8.112;2023-03-17T17:57:47;17.95;;;3.95;;
35223;SDS011;21367;51.930;8.112;2023-03-17T18:02:54;11.63;;;5.05;;
35223;SDS011;21367;51.930;8.112;2023-03-17T18:07:58;10.68;;;4.45;;
35223;SDS011;21367;51.930;8.112;2023-03-17T18:13:02;10.80;;;3.72;;
35223;SDS011;21367;51.930;8.112;2023-03-17T18:18:08;9.57;;;3.50;;
35223;SDS011;21367;51.930;8.112;2023-03-17T18:23:12;7.70;;;2.90;;
35223;SDS011;21367;51.930;8.112;2023-03-17T18:28:17;13.63;;;3.95;;
35223;SDS011;21367;51.930;8.112;2023-03-17T18:33:23;8.48;;;3.47;;
35223;SDS011;21367;51.930;8.112;2023-03-17T18:43:30;12.05;;;3.50;;
35223;SDS011;21367;51.930;8.112;2023-03-17T18:48:36;13.63;;;5.32;;
35223;SDS011;21367;51.930;8.112;2023-03-17T18:53:41;11.98;;;4.85;;
35223;SDS011;21367;51.930;8.112;2023-03-17T18:58:45;10.05;;;4.65;;
35223;SDS011;21367;51.930;8.112;2023-03-17T19:03:51;11.23;;;5.65;;
35223;SDS011;21367;51.930;8.112;2023-03-17T19:08:55;13.85;;;3.53;;
35223;SDS011;21367;51.930;8.112;2023-03-17T19:13:59;9.77;;;3.13;;
35223;SDS011;21367;51.930;8.112;2023-03-17T19:19:06;10.90;;;3.45;;
35223;SDS011;21367;51.930;8.112;2023-03-17T19:24:09;9.27;;;3.05;;
35223;SDS011;21367;51.930;8.112;2023-03-17T19:29:14;10.52;;;3.28;;
35223;SDS011;21367;51.930;8.112;2023-03-17T19:34:21;14.50;;;4.28;;
35223;SDS011;21367;51.930;8.112;2023-03-17T19:39:25;12.00;;;4.07;;
35223;SDS011;21367;51.930;8.112;2023-03-17T19:44:30;11.93;;;4.20;;
35223;SDS011;21367;51.930;8.112;2023-03-17T19:49:37;8.85;;;4.13;;
35223;SDS011;21367;51.930;8.112;2023-03-17T19:54:41;31.08;;;9.30;;
35223;SDS011;21367;51.930;8.112;2023-03-17T19:59:45;40.83;;;14.52;;
35223;SDS011;21367;51.930;8.112;2023-03-17T20:04:52;20.05;;;7.97;;
35223;SDS011;21367;51.930;8.112;2023-03-17T20:14:59;15.07;;;5.28;;
35223;SDS011;21367;51.930;8.112;2023-03-17T20:20:06;14.23;;;5.30;;
35223;SDS011;21367;51.930;8.112;2023-03-17T20:25:11;12.55;;;5.55;;
35223;SDS011;21367;51.930;8.112;2023-03-17T20:30:15;12.60;;;5.55;;
35223;SDS011;21367;51.930;8.112;2023-03-17T20:35:22;14.10;;;6.50;;
35223;SDS011;21367;51.930;8.112;2023-03-17T20:40:27;19.50;;;6.60;;
35223;SDS011;21367;51.930;8.112;2023-03-17T20:45:31;11.98;;;5.80;;
35223;SDS011;21367;51.930;8.112;2023-03-17T20:50:38;13.32;;;4.93;;
35223;SDS011;21367;51.930;8.112;2023-03-17T20:55:43;15.13;;;4.50;;
35223;SDS011;21367;51.930;8.112;2023-03-17T21:00:47;12.95;;;4.30;;
35223;SDS011;21367;51.930;8.112;2023-03-17T21:05:55;12.77;;;4.38;;
35223;SDS011;21367;51.930;8.112;2023-03-17T21:11:00;16.40;;;5.38;;
35223;SDS011;21367;51.930;8.112;2023-03-17T21:16:04;14.38;;;4.43;;
35223;SDS011;21367;51.930;8.112;2023-03-17T21:21:12;10.07;;;3.63;;
35223;SDS011;21367;51.930;8.112;2023-03-17T21:26:16;15.90;;;3.53;;
35223;SDS011;21367;51.930;8.112;2023-03-17T21:31:20;8.55;;;3.15;;
35223;SDS011;21367;51.930;8.112;2023-03-17T21:36:26;8.98;;;2.72;;
35223;SDS011;21367;51.930;8.112;2023-03-17T21:46:35;9.73;;;3.05;;
35223;SDS011;21367;51.930;8.112;2023-03-17T21:51:41;12.10;;;2.92;;
35223;SDS011;21367;51.930;8.112;2023-03-17T21:56:46;9.82;;;2.78;;
35223;SDS011;21367;51.930;8.112;2023-03-17T22:01:51;12.57;;;2.90;;
35223;SDS011;21367;51.930;8.112;2023-03-17T22:06:57;11.30;;;2.78;;
35223;SDS011;21367;51.930;8.112;2023-03-17T22:12:04;7.68;;;2.40;;
35223;SDS011;21367;51.930;8.112;2023-03-17T22:17:08;10.88;;;2.95;;
35223;SDS011;21367;51.930;8.112;2023-03-17T22:22:14;6.65;;;2.72;;
35223;SDS011;21367;51.930;8.112;2023-03-17T22:27:19;9.55;;;2.80;;
35223;SDS011;21367;51.930;8.112;2023-03-17T22:32:23;10.57;;;3.20;;
35223;SDS011;21367;51.930;8.112;2023-03-17T22:37:30;11.05;;;3.10;;
35223;SDS011;21367;51.930;8.112;2023-03-17T22:42:33;9.45;;;2.25;;
35223;SDS011;21367;51.930;8.112;2023-03-17T22:47:38;7.88;;;2.88;;
35223;SDS011;21367;51.930;8.112;2023-03-17T22:52:44;9.68;;;2.40;;
35223;SDS011;21367;51.930;8.112;2023-03-17T22:57:49;5.10;;;2.17;;
35223;SDS011;21367;51.930;8.112;2023-03-17T23:02:52;10.80;;;2.47;;
35223;SDS011;21367;51.930;8.112;2023-03-17T23:07:59;9.60;;;2.38;;
35223;SDS011;21367;51.930;8.112;2023-03-17T23:18:07;11.23;;;2.25;;
35223;SDS011;21367;51.930;8.112;2023-03-17T23:23:14;11.80;;;2.63;;
35223;SDS011;21367;51.930;8.112;2023-03-17T23:28:19;8.65;;;2.63;;
35223;SDS011;21367;51.930;8.112;2023-03-17T23:33:23;14.07;;;3.03;;
35223;SDS011;21367;51.930;8.112;2023-03-17T23:38:30;13.05;;;3.05;;
35223;SDS011;21367;51.930;8.112;2023-03-17T23:43:34;11.65;;;3.17;;
35223;SDS011;21367;51.930;8.112;2023-03-17T23:48:38;11.50;;;3.25;;
35223;SDS011;21367;51.930;8.112;2023-03-17T23:53:45;22.02;;;3.33;;
35223;SDS011;21367;51.930;8.112;2023-03-17T23:58:50;15.65;;;3.30;;
